Time;durP1;ratioP1;P1;durP2;ratioP2;P2;SDS_P1;SDS_P2;PMS_P1;PMS_P2;Temp;Humidity;BMP_temperature;BMP_pressure;BME280_temperature;BME280_humidity;BME280_pressure;Samples;Min_cycle;Max_cycle;Signal;HPM_P1;HPM_P2
2022/10/11 00:02:24;;;;;;;8.70;5.93;;;23.30;59.40;;;;;;5021944;28;20030;-37
2022/10/11 00:04:50;;;;;;;8.27;5.72;;;23.30;59.20;;;;;;5024345;28;20283;-37
2022/10/11 00:07:19;;;;;;;8.00;6.00;;;23.30;59.10;;;;;;5020716;28;20080;-37
2022/10/11 00:09:45;;;;;;;10.07;5.90;;;23.30;59.00;;;;;;5020995;28;20037;-37
2022/10/11 00:12:11;;;;;;;9.85;5.70;;;23.30;58.80;;;;;;5034767;28;20033;-37
2022/10/11 00:14:37;;;;;;;9.93;5.80;;;23.30;58.80;;;;;;5022163;28;20025;-37
2022/10/11 00:17:06;;;;;;;7.18;6.25;;;23.30;58.70;;;;;;5023876;28;20021;-37
2022/10/11 00:19:33;;;;;;;9.50;5.95;;;23.30;58.60;;;;;;5034557;28;20494;-37
2022/10/11 00:21:59;;;;;;;11.98;6.35;;;23.30;58.50;;;;;;5019725;28;20040;-37
2022/10/11 00:24:25;;;;;;;9.32;5.90;;;23.30;58.50;;;;;;5024714;28;20061;-37
2022/10/11 00:26:51;;;;;;;10.35;6.28;;;23.30;58.50;;;;;;5027630;28;20036;-37
2022/10/11 00:29:17;;;;;;;9.85;5.72;;;23.30;58.40;;;;;;5007385;28;20037;-37
2022/10/11 00:31:43;;;;;;;8.13;5.90;;;23.20;58.30;;;;;;5022193;28;20124;-37
2022/10/11 00:34:11;;;;;;;12.25;6.15;;;23.20;58.30;;;;;;5024985;28;20116;-37
2022/10/11 00:36:37;;;;;;;8.00;6.10;;;23.20;58.30;;;;;;5037306;28;20052;-37
2022/10/11 00:39:03;;;;;;;9.10;5.90;;;23.20;58.30;;;;;;5024167;28;20042;-37
2022/10/11 00:41:29;;;;;;;7.45;6.25;;;23.20;58.30;;;;;;5035640;28;20025;-37
2022/10/11 00:44:18;;;;;;;10.07;5.68;;;23.20;58.20;;;;;;5034063;28;20038;-37
2022/10/11 00:46:50;;;;;;;8.45;5.80;;;23.20;58.20;;;;;;5042164;28;20037;-37
2022/10/11 00:49:21;;;;;;;11.30;5.63;;;23.20;58.20;;;;;;5044649;28;20140;-37
2022/10/11 00:51:50;;;;;;;8.60;6.18;;;23.20;58.20;;;;;;5019435;28;20029;-37
2022/10/11 00:54:18;;;;;;;11.68;5.93;;;23.20;58.20;;;;;;5029825;28;20093;-38
2022/10/11 00:56:45;;;;;;;11.73;6.43;;;23.10;58.10;;;;;;5030817;28;20026;-37
2022/10/11 00:59:11;;;;;;;;;;;23.10;58.20;;;;;;5025586;28;20087;-35
2022/10/11 01:01:38;;;;;;;15.05;6.00;;;23.10;58.20;;;;;;5017400;28;20007;-35
2022/10/11 01:04:04;;;;;;;9.85;5.75;;;23.10;58.60;;;;;;5023285;28;20054;-36
2022/10/11 01:06:30;;;;;;;9.27;5.05;;;23.00;58.90;;;;;;5026040;28;20036;-35
2022/10/11 01:08:56;;;;;;;8.07;4.80;;;22.90;59.00;;;;;;5028141;28;20052;-35
2022/10/11 01:11:23;;;;;;;8.02;4.82;;;22.90;59.20;;;;;;5027283;28;20037;-35
2022/10/11 01:14:18;;;;;;;7.65;5.18;;;22.80;59.30;;;;;;5006825;28;20053;-35
2022/10/11 01:17:07;;;;;;;11.57;4.50;;;22.80;59.40;;;;;;5026754;28;20061;-35
2022/10/11 01:19:54;;;;;;;4.97;4.47;;;22.70;59.50;;;;;;5019564;28;20028;-35
2022/10/11 01:22:31;;;;;;;5.90;4.35;;;22.70;59.60;;;;;;5015982;28;20045;-35
2022/10/11 01:25:11;;;;;;;7.03;4.65;;;22.70;59.60;;;;;;5029076;28;20490;-35
2022/10/11 01:28:01;;;;;;;6.65;4.13;;;22.70;59.60;;;;;;5021587;28;20125;-36
2022/10/11 01:30:32;;;;;;;7.20;4.10;;;22.70;59.60;;;;;;5027139;28;20099;-34
2022/10/11 01:33:06;;;;;;;6.15;4.15;;;22.70;59.70;;;;;;5028953;28;20034;-36
2022/10/11 01:35:59;;;;;;;5.18;3.80;;;22.70;59.70;;;;;;5024804;28;20038;-36
2022/10/11 01:38:38;;;;;;;4.60;4.03;;;22.70;59.70;;;;;;5022966;28;20057;-35
2022/10/11 01:41:08;;;;;;;4.70;3.70;;;22.70;59.70;;;;;;5013002;28;20035;-36
2022/10/11 01:43:35;;;;;;;4.72;3.65;;;22.70;59.70;;;;;;5026243;28;20030;-36
2022/10/11 01:46:02;;;;;;;4.20;3.40;;;22.60;59.60;;;;;;5006892;28;20828;-37
2022/10/11 01:48:28;;;;;;;;;;;22.60;59.70;;;;;;5029955;28;20477;-42
2022/10/11 01:50:56;;;;;;;3.92;3.47;;;22.60;59.70;;;;;;5020508;28;19924;-37
2022/10/11 01:53:45;;;;;;;3.60;3.30;;;22.60;59.60;;;;;;5017193;28;20032;-37
2022/10/11 01:56:31;;;;;;;3.92;3.35;;;22.60;59.70;;;;;;5022648;28;20565;-35
2022/10/11 01:59:22;;;;;;;4.03;3.40;;;22.50;59.70;;;;;;5019742;28;20037;-36
2022/10/11 02:01:55;;;;;;;6.93;3.88;;;22.60;60.40;;;;;;5015657;28;20080;-36
2022/10/11 02:04:37;;;;;;;4.95;4.05;;;22.60;59.90;;;;;;5012840;28;20034;-35
2022/10/11 02:07:26;;;;;;;4.13;3.67;;;22.50;59.80;;;;;;5020179;28;20033;-35
2022/10/11 02:10:10;;;;;;;4.40;3.53;;;22.50;59.80;;;;;;5011746;28;20156;-35
2022/10/11 02:12:41;;;;;;;4.40;3.53;;;22.50;59.70;;;;;;5029000;28;20110;-34
2022/10/11 02:15:09;;;;;;;4.80;4.10;;;22.50;59.70;;;;;;5042338;28;20085;-36
2022/10/11 02:17:39;;;;;;;3.58;3.10;;;22.50;59.60;;;;;;5011911;28;20108;-35
2022/10/11 02:20:08;;;;;;;3.92;3.40;;;22.50;59.80;;;;;;5013800;28;20037;-36
2022/10/11 02:22:36;;;;;;;3.70;3.33;;;22.50;59.80;;;;;;5042764;28;20061;-34
2022/10/11 02:25:24;;;;;;;4.60;3.30;;;22.50;59.80;;;;;;5034872;28;20085;-35
2022/10/11 02:27:50;;;;;;;3.87;3.47;;;22.40;59.80;;;;;;4972618;28;20066;-35
2022/10/11 02:30:17;;;;;;;3.33;3.00;;;22.40;59.70;;;;;;4962298;28;20303;-35
2022/10/11 02:32:43;;;;;;;3.55;3.25;;;22.50;59.70;;;;;;4989748;28;20034;-35
2022/10/11 02:35:10;;;;;;;3.83;3.40;;;22.40;59.70;;;;;;4962249;28;20065;-36
2022/10/11 02:37:44;;;;;;;2.92;2.70;;;22.40;59.70;;;;;;4960884;28;20042;-36
2022/10/11 02:40:51;;;;;;;3.10;2.80;;;22.40;59.80;;;;;;4984151;28;20046;-36
2022/10/11 02:43:24;;;;;;;3.47;3.17;;;22.30;59.70;;;;;;4917128;29;20036;-34
2022/10/11 02:45:55;;;;;;;3.20;2.90;;;22.40;59.70;;;;;;4902706;29;20094;-35
2022/10/11 02:48:22;;;;;;;3.10;2.83;;;22.30;59.70;;;;;;4902233;29;20044;-35
2022/10/11 02:50:48;;;;;;;2.72;2.53;;;22.30;59.70;;;;;;4904393;29;20055;-38
2022/10/11 02:53:14;;;;;;;3.35;3.05;;;22.30;59.70;;;;;;4919192;29;20036;-37
2022/10/11 02:55:40;;;;;;;5.32;3.00;;;22.30;59.70;;;;;;4918694;29;20073;-38
2022/10/11 02:58:06;;;;;;;2.78;2.55;;;22.20;59.70;;;;;;4915485;29;20083;-36
2022/10/11 03:00:32;;;;;;;3.00;2.80;;;22.20;59.70;;;;;;4916588;29;20040;-34
2022/10/11 03:02:58;;;;;;;2.65;2.45;;;22.10;59.90;;;;;;4918954;29;20493;-35
2022/10/11 03:05:25;;;;;;;2.85;2.60;;;22.10;60.10;;;;;;4927794;29;20075;-36
2022/10/11 03:07:51;;;;;;;3.15;2.85;;;22.00;60.20;;;;;;4935854;29;20032;-35
2022/10/11 03:10:17;;;;;;;3.10;2.80;;;22.00;60.20;;;;;;4936555;29;20128;-37
2022/10/11 03:12:43;;;;;;;3.28;2.97;;;22.10;60.20;;;;;;4936010;29;20035;-36
2022/10/11 03:15:09;;;;;;;3.20;2.88;;;22.10;60.20;;;;;;4936976;29;20085;-37
2022/10/11 03:17:35;;;;;;;2.97;2.77;;;22.10;60.10;;;;;;4988291;28;20050;-36
2022/10/11 03:20:01;;;;;;;2.78;2.58;;;22.10;60.00;;;;;;5017621;28;20025;-36
2022/10/11 03:22:27;;;;;;;2.70;2.50;;;22.10;59.90;;;;;;5015945;28;20100;-36
2022/10/11 03:24:54;;;;;;;3.10;2.83;;;22.10;59.90;;;;;;5011531;28;20038;-36
2022/10/11 03:27:20;;;;;;;3.20;2.90;;;22.00;60.00;;;;;;5019269;28;20033;-35
2022/10/11 03:29:46;;;;;;;3.13;2.83;;;22.00;60.50;;;;;;5016220;28;20105;-36
2022/10/11 03:32:12;;;;;;;3.28;2.70;;;21.90;60.50;;;;;;5014325;28;20136;-35
2022/10/11 03:34:38;;;;;;;3.00;2.70;;;22.00;60.50;;;;;;5012298;28;20025;-36
2022/10/11 03:37:04;;;;;;;3.00;2.78;;;21.90;60.50;;;;;;5017384;28;20097;-37
2022/10/11 03:39:30;;;;;;;3.08;2.85;;;21.90;60.50;;;;;;5014471;28;20517;-37
2022/10/11 03:41:57;;;;;;;2.90;2.60;;;21.80;60.60;;;;;;5019402;28;20049;-37
2022/10/11 03:44:23;;;;;;;3.22;2.92;;;21.80;60.50;;;;;;5016170;28;20034;-37
2022/10/11 03:46:49;;;;;;;2.40;2.20;;;21.90;60.50;;;;;;5019475;28;20025;-37
2022/10/11 03:49:15;;;;;;;3.17;2.88;;;21.80;60.40;;;;;;5017210;28;20038;-36
2022/10/11 03:51:41;;;;;;;3.28;2.97;;;21.80;60.40;;;;;;5014738;28;20022;-37
2022/10/11 03:54:08;;;;;;;2.90;2.60;;;21.80;60.40;;;;;;5018549;28;20151;-37
2022/10/11 03:56:34;;;;;;;3.35;3.05;;;21.80;60.50;;;;;;5020122;28;20032;-37
2022/10/11 03:59:01;;;;;;;3.33;3.03;;;21.70;60.40;;;;;;5014894;28;20089;-36
2022/10/11 04:01:27;;;;;;;3.10;2.80;;;21.70;60.40;;;;;;5018192;28;20093;-36
2022/10/11 04:03:56;;;;;;;4.22;3.00;;;21.70;60.60;;;;;;5018010;28;20044;-37
2022/10/11 04:06:22;;;;;;;3.80;3.35;;;21.70;60.60;;;;;;5019746;28;20037;-36
2022/10/11 04:08:48;;;;;;;3.30;3.00;;;21.70;60.60;;;;;;5018843;28;20097;-36
2022/10/11 04:11:14;;;;;;;3.90;3.35;;;21.60;60.50;;;;;;5020197;28;20030;-36
2022/10/11 04:13:41;;;;;;;3.63;3.33;;;21.70;60.50;;;;;;5019020;28;20056;-37
2022/10/11 04:16:07;;;;;;;5.85;3.83;;;21.60;60.40;;;;;;5017658;28;20022;-36
2022/10/11 04:18:33;;;;;;;4.72;3.80;;;21.70;60.50;;;;;;5019532;28;20044;-36
2022/10/11 04:20:59;;;;;;;5.35;3.90;;;21.60;60.40;;;;;;5018041;28;20053;-37
2022/10/11 04:23:25;;;;;;;4.82;3.97;;;21.60;60.40;;;;;;5018529;28;20033;-37
2022/10/11 04:25:51;;;;;;;4.53;3.90;;;21.60;60.60;;;;;;5017703;28;20029;-37
2022/10/11 04:28:17;;;;;;;4.68;3.85;;;21.60;60.60;;;;;;5018627;28;20045;-37
2022/10/11 04:30:43;;;;;;;5.25;4.45;;;21.60;60.70;;;;;;5019174;28;20048;-37
2022/10/11 04:33:10;;;;;;;4.65;3.78;;;21.50;60.70;;;;;;5016347;28;20069;-36
2022/10/11 04:35:36;;;;;;;5.25;4.28;;;21.50;60.80;;;;;;5018482;28;20026;-36
2022/10/11 04:38:02;;;;;;;4.30;3.90;;;21.50;60.90;;;;;;5018401;28;20121;-36
2022/10/11 04:40:29;;;;;;;4.88;4.30;;;21.50;61.30;;;;;;5021050;28;20065;-36
2022/10/11 04:42:55;;;;;;;5.85;4.00;;;21.50;62.10;;;;;;5021974;28;20058;-36
2022/10/11 04:45:21;;;;;;;4.95;4.45;;;21.40;62.20;;;;;;5009058;28;20200;-35
2022/10/11 04:47:47;;;;;;;5.03;4.30;;;21.40;62.30;;;;;;5015618;28;20037;-35
2022/10/11 04:50:13;;;;;;;4.95;3.78;;;21.40;62.20;;;;;;5017409;28;20026;-35
2022/10/11 04:52:39;;;;;;;5.15;4.10;;;21.40;62.20;;;;;;5020371;28;20057;-36
2022/10/11 04:55:06;;;;;;;5.13;4.13;;;21.30;62.00;;;;;;5017032;28;20105;-37
2022/10/11 04:57:32;;;;;;;5.70;4.30;;;21.30;62.00;;;;;;5021206;28;20037;-36
2022/10/11 04:59:58;;;;;;;4.47;3.80;;;21.30;62.10;;;;;;5019410;28;20029;-36
2022/10/11 05:02:24;;;;;;;4.22;3.70;;;21.20;62.10;;;;;;5019872;28;20026;-38
2022/10/11 05:04:50;;;;;;;4.22;3.70;;;21.20;62.10;;;;;;5016093;28;20055;-37
2022/10/11 05:07:16;;;;;;;4.10;3.58;;;21.20;62.10;;;;;;5018404;28;20026;-36
2022/10/11 05:09:42;;;;;;;4.28;3.88;;;21.20;62.00;;;;;;5017076;28;20677;-35
2022/10/11 05:12:08;;;;;;;4.25;3.85;;;21.20;61.90;;;;;;5020127;28;20034;-37
2022/10/11 05:14:35;;;;;;;4.45;3.70;;;21.20;61.80;;;;;;5015254;28;20116;-37
2022/10/11 05:17:01;;;;;;;4.03;3.63;;;21.20;61.90;;;;;;5018211;28;20028;-36
2022/10/11 05:19:27;;;;;;;3.88;3.53;;;21.20;61.90;;;;;;5018440;28;20026;-37
2022/10/11 05:21:53;;;;;;;4.70;3.30;;;21.20;62.00;;;;;;5013459;28;20053;-36
2022/10/11 05:24:20;;;;;;;3.55;3.00;;;21.20;61.80;;;;;;5017873;28;20053;-36
2022/10/11 05:26:46;;;;;;;3.63;3.30;;;21.20;61.90;;;;;;5017383;28;20036;-37
2022/10/11 05:29:12;;;;;;;3.78;3.38;;;21.10;61.80;;;;;;5018703;28;20034;-36
2022/10/11 05:31:38;;;;;;;4.00;3.55;;;21.10;61.80;;;;;;4982243;28;20129;-37
2022/10/11 05:34:04;;;;;;;3.55;3.25;;;21.10;62.10;;;;;;4980999;28;20039;-36
2022/10/11 05:36:30;;;;;;;4.95;3.45;;;21.10;62.10;;;;;;4976380;28;20030;-37
2022/10/11 05:38:56;;;;;;;4.25;3.50;;;21.20;62.30;;;;;;4975309;28;20034;-37
2022/10/11 05:41:22;;;;;;;3.40;3.10;;;21.10;62.00;;;;;;4974940;28;20154;-37
2022/10/11 05:43:48;;;;;;;3.47;3.05;;;21.20;62.10;;;;;;4979916;28;20030;-36
2022/10/11 05:46:15;;;;;;;4.00;3.05;;;21.20;62.00;;;;;;4982050;28;20102;-36
2022/10/11 05:48:41;;;;;;;3.40;3.08;;;21.10;62.00;;;;;;4975250;28;20038;-36
2022/10/11 05:51:08;;;;;;;3.40;3.10;;;21.10;62.00;;;;;;4975735;28;20026;-36
2022/10/11 05:53:35;;;;;;;3.55;3.25;;;21.10;61.90;;;;;;4978674;28;20050;-36
2022/10/11 05:56:02;;;;;;;3.47;3.10;;;21.10;61.80;;;;;;4972213;28;20023;-36
2022/10/11 05:58:28;;;;;;;3.22;2.42;;;21.10;62.00;;;;;;4977217;28;20038;-35
2022/10/11 06:00:55;;;;;;;3.30;3.00;;;21.00;62.10;;;;;;4979759;28;20038;-34
2022/10/11 06:03:21;;;;;;;;;;;21.00;62.20;;;;;;4977540;28;20043;-36
2022/10/11 06:05:47;;;;;;;3.20;2.83;;;21.00;62.20;;;;;;4981096;28;19914;-35
2022/10/11 06:08:14;;;;;;;3.57;3.20;;;20.90;62.30;;;;;;4977088;28;20806;-35
2022/10/11 06:10:40;;;;;;;3.78;3.10;;;20.90;62.30;;;;;;4980667;28;20098;-35
2022/10/11 06:13:07;;;;;;;3.42;2.80;;;20.90;62.30;;;;;;4976261;28;20049;-34
2022/10/11 06:15:33;;;;;;;3.35;3.05;;;20.90;62.40;;;;;;4982130;28;20042;-35
2022/10/11 06:17:59;;;;;;;4.03;2.90;;;20.90;62.30;;;;;;4977103;28;20042;-34
2022/10/11 06:20:25;;;;;;;3.42;3.03;;;20.80;62.40;;;;;;4976558;28;20038;-35
2022/10/11 06:22:52;;;;;;;3.17;2.80;;;20.80;62.40;;;;;;4980342;28;20046;-35
2022/10/11 06:25:18;;;;;;;3.55;2.85;;;20.80;62.40;;;;;;4985077;28;20031;-36
2022/10/11 06:27:44;;;;;;;3.70;2.35;;;20.80;62.40;;;;;;4982142;28;20049;-36
2022/10/11 06:30:11;;;;;;;2.80;2.60;;;20.90;62.60;;;;;;4996314;28;20050;-36
2022/10/11 06:32:56;;;;;;;4.53;2.80;;;20.80;62.60;;;;;;5024854;28;20049;-36
2022/10/11 06:35:23;;;;;;;2.92;2.63;;;20.80;62.80;;;;;;5014285;28;20034;-35
2022/10/11 06:37:50;;;;;;;2.87;2.57;;;20.70;62.90;;;;;;5018846;28;20048;-35
2022/10/11 06:40:16;;;;;;;2.97;2.67;;;20.70;62.90;;;;;;5014569;28;20045;-35
2022/10/11 06:42:42;;;;;;;2.78;2.58;;;20.70;63.00;;;;;;5027235;28;20041;-35
2022/10/11 06:45:09;;;;;;;3.00;2.70;;;20.60;62.90;;;;;;5013659;28;20031;-36
2022/10/11 06:47:35;;;;;;;2.80;2.57;;;20.60;63.00;;;;;;5013416;28;20279;-35
2022/10/11 06:50:01;;;;;;;3.17;2.88;;;20.60;63.00;;;;;;5015806;28;20074;-35
2022/10/11 06:52:27;;;;;;;2.90;2.60;;;20.60;63.00;;;;;;5013795;28;20021;-35
2022/10/11 06:54:53;;;;;;;3.63;2.78;;;20.60;63.10;;;;;;5015675;28;20025;-35
2022/10/11 06:57:19;;;;;;;3.00;2.70;;;20.60;63.00;;;;;;5018527;28;20021;-35
2022/10/11 06:59:45;;;;;;;2.95;2.70;;;20.60;62.90;;;;;;5022738;28;20033;-35
2022/10/11 07:02:12;;;;;;;2.75;2.45;;;20.60;62.80;;;;;;5031202;28;20046;-36
2022/10/11 07:04:38;;;;;;;2.47;2.28;;;20.60;62.90;;;;;;5022273;28;20018;-37
2022/10/11 07:07:04;;;;;;;3.30;2.50;;;20.60;62.80;;;;;;5015634;28;20885;-36
2022/10/11 07:09:31;;;;;;;2.50;2.30;;;20.60;62.80;;;;;;5009118;28;20077;-33
2022/10/11 07:11:57;;;;;;;2.67;2.42;;;20.60;62.80;;;;;;5018807;28;20475;-34
2022/10/11 07:14:23;;;;;;;2.97;2.60;;;20.60;62.80;;;;;;5020552;28;20065;-33
2022/10/11 07:16:49;;;;;;;2.55;2.30;;;20.50;62.70;;;;;;5014823;28;20029;-36
2022/10/11 07:19:15;;;;;;;2.63;2.42;;;20.50;62.70;;;;;;5006761;28;20375;-36
2022/10/11 07:21:41;;;;;;;2.67;2.47;;;20.50;62.70;;;;;;5013880;28;20032;-38
2022/10/11 07:24:07;;;;;;;2.55;2.35;;;20.50;62.90;;;;;;5018412;28;20057;-38
2022/10/11 07:26:34;;;;;;;2.60;2.40;;;20.50;63.10;;;;;;5015718;28;21278;-37
2022/10/11 07:29:00;;;;;;;2.90;2.70;;;20.50;63.10;;;;;;5021550;28;20542;-37
2022/10/11 07:31:27;;;;;;;2.65;2.35;;;20.40;63.00;;;;;;5021770;28;20058;-37
2022/10/11 07:33:54;;;;;;;2.28;2.08;;;20.40;63.00;;;;;;5020358;28;20408;-37
2022/10/11 07:36:22;;;;;;;2.60;2.40;;;20.40;63.00;;;;;;5024078;28;20057;-37
2022/10/11 07:38:49;;;;;;;2.40;2.20;;;20.40;63.00;;;;;;5020152;28;20038;-37
2022/10/11 07:41:15;;;;;;;2.60;2.40;;;20.40;62.90;;;;;;5021021;28;20117;-37
2022/10/11 07:43:46;;;;;;;2.60;2.40;;;20.40;62.90;;;;;;5013686;28;20041;-37
2022/10/11 07:46:13;;;;;;;2.50;2.30;;;20.40;62.90;;;;;;5014866;28;20034;-37
2022/10/11 07:48:39;;;;;;;2.53;2.33;;;20.40;62.90;;;;;;5021131;28;20046;-36
2022/10/11 07:51:10;;;;;;;2.70;2.50;;;20.30;63.10;;;;;;5014128;28;20093;-36
2022/10/11 07:53:40;;;;;;;2.50;2.30;;;20.30;63.10;;;;;;5014874;28;20030;-36
2022/10/11 07:56:08;;;;;;;2.20;2.00;;;20.30;63.10;;;;;;5023909;28;20022;-36
2022/10/11 07:58:34;;;;;;;2.63;2.42;;;20.30;63.20;;;;;;5020996;28;20028;-37
2022/10/11 08:01:00;;;;;;;2.40;2.20;;;20.30;63.20;;;;;;5019867;28;20524;-38
2022/10/11 08:03:26;;;;;;;2.50;2.30;;;20.30;63.40;;;;;;5016266;28;20033;-38
2022/10/11 08:05:52;;;;;;;2.72;2.53;;;20.30;63.20;;;;;;5021192;28;20030;-37
2022/10/11 08:08:18;;;;;;;3.58;2.50;;;20.20;63.10;;;;;;5011566;28;20045;-37
2022/10/11 08:10:44;;;;;;;2.95;2.67;;;20.20;63.00;;;;;;5010133;28;20090;-37
2022/10/11 08:13:10;;;;;;;2.78;2.30;;;20.20;63.00;;;;;;5017743;28;20053;-37
2022/10/11 08:15:37;;;;;;;2.50;2.30;;;20.20;62.90;;;;;;5018807;28;20057;-35
2022/10/11 08:18:03;;;;;;;3.78;2.53;;;20.20;63.00;;;;;;5020897;28;20038;-35
2022/10/11 08:20:30;;;;;;;13.02;3.33;;;20.20;63.10;;;;;;5013293;28;20060;-35
2022/10/11 08:22:56;;;;;;;5.75;2.97;;;20.30;63.40;;;;;;5017851;28;20037;-37
2022/10/11 08:25:22;;;;;;;9.20;3.30;;;20.30;63.40;;;;;;5018426;28;20030;-36
2022/10/11 08:27:48;;;;;;;10.88;3.20;;;20.30;63.30;;;;;;5017443;28;20490;-36
2022/10/11 08:30:14;;;;;;;7.93;3.40;;;20.30;63.60;;;;;;5017246;28;20061;-36
2022/10/11 08:32:40;;;;;;;12.65;3.45;;;20.30;63.60;;;;;;5012057;28;20026;-37
2022/10/11 08:35:07;;;;;;;7.55;3.47;;;20.30;63.60;;;;;;5025608;28;20034;-37
2022/10/11 08:37:33;;;;;;;6.23;2.53;;;20.30;63.40;;;;;;5032929;28;20029;-38
2022/10/11 08:40:00;;;;;;;12.77;3.20;;;20.30;63.30;;;;;;5018868;28;20037;-38
2022/10/11 08:42:35;;;;;;;8.30;3.42;;;20.30;63.00;;;;;;5019049;28;20041;-35
2022/10/11 08:45:08;;;;;;;6.47;3.40;;;20.30;62.90;;;;;;5040071;28;20504;-37
2022/10/11 08:47:41;;;;;;;5.32;3.30;;;20.30;62.70;;;;;;5024674;28;20053;-37
2022/10/11 08:50:20;;;;;;;6.15;3.35;;;20.30;62.50;;;;;;5023702;28;20046;-37
2022/10/11 08:52:55;;;;;;;7.38;3.35;;;20.30;62.30;;;;;;5011409;28;20022;-35
2022/10/11 08:55:50;;;;;;;7.18;3.90;;;20.30;62.30;;;;;;5014131;28;20038;-35
2022/10/11 08:58:18;;;;;;;4.75;3.45;;;20.30;62.20;;;;;;5010833;28;20060;-35
2022/10/11 09:00:45;;;;;;;8.10;3.97;;;20.30;62.00;;;;;;5019647;28;20130;-35
2022/10/11 09:03:30;;;;;;;6.93;3.40;;;20.30;61.90;;;;;;5027915;28;20033;-35
2022/10/11 09:06:15;;;;;;;6.25;3.22;;;20.30;61.90;;;;;;5022966;28;20045;-36
2022/10/11 09:09:09;;;;;;;7.65;3.45;;;20.20;61.70;;;;;;5015245;28;20872;-36
2022/10/11 09:11:55;;;;;;;4.57;3.05;;;20.20;61.70;;;;;;5012538;28;20041;-36
2022/10/11 09:14:27;;;;;;;6.20;3.42;;;20.20;61.60;;;;;;5016449;28;20101;-35
2022/10/11 09:17:05;;;;;;;6.45;3.85;;;20.20;61.50;;;;;;5020093;28;20026;-35
2022/10/11 09:20:00;;;;;;;5.15;3.30;;;20.20;61.50;;;;;;5021267;28;20037;-35
2022/10/11 09:22:26;;;;;;;6.60;3.42;;;20.20;61.40;;;;;;5011092;28;20090;-35
2022/10/11 09:25:16;;;;;;;5.53;3.40;;;20.20;61.30;;;;;;5020845;28;20029;-35
2022/10/11 09:28:16;;;;;;;4.55;3.15;;;20.10;61.30;;;;;;5009890;28;20030;-35
2022/10/11 09:30:47;;;;;;;4.68;3.75;;;20.10;61.30;;;;;;5007711;28;20046;-35
2022/10/11 09:33:19;;;;;;;4.85;4.35;;;20.10;61.40;;;;;;5018348;28;21209;-35
2022/10/11 09:35:48;;;;;;;5.65;4.63;;;20.10;63.00;;;;;;5012850;28;20030;-35
2022/10/11 09:38:25;;;;;;;4.63;4.22;;;20.10;63.30;;;;;;5024040;28;20033;-35
2022/10/11 09:41:08;;;;;;;4.30;3.90;;;20.10;64.00;;;;;;5019054;28;20030;-35
2022/10/11 09:43:34;;;;;;;4.13;3.75;;;20.20;64.90;;;;;;5021622;28;20105;-36
2022/10/11 09:46:00;;;;;;;4.13;3.72;;;20.20;64.00;;;;;;5015624;28;20071;-36
2022/10/11 09:48:47;;;;;;;4.03;3.72;;;20.20;63.60;;;;;;5013472;28;20030;-35
2022/10/11 09:51:18;;;;;;;4.38;3.90;;;20.20;63.50;;;;;;5017293;28;20052;-39
2022/10/11 09:54:00;;;;;;;4.30;3.90;;;20.20;64.30;;;;;;5016517;28;20093;-36
2022/10/11 09:56:28;;;;;;;4.38;3.97;;;20.20;64.80;;;;;;5019155;28;20041;-36
2022/10/11 09:59:15;;;;;;;3.90;3.60;;;20.20;65.00;;;;;;5035300;28;20106;-36
2022/10/11 10:01:41;;;;;;;4.22;3.55;;;20.20;64.40;;;;;;5027037;28;20026;-36
2022/10/11 10:04:10;;;;;;;3.85;3.55;;;20.20;64.00;;;;;;5022840;28;20041;-36
2022/10/11 10:06:36;;;;;;;3.97;3.60;;;20.20;63.90;;;;;;5023473;28;20026;-36
2022/10/11 10:09:25;;;;;;;4.10;3.70;;;20.20;64.10;;;;;;5017111;28;20046;-36
2022/10/11 10:11:52;;;;;;;3.75;3.45;;;20.30;65.00;;;;;;5016835;28;20031;-36
2022/10/11 10:14:27;;;;;;;3.83;3.53;;;20.30;65.20;;;;;;5012923;28;21738;-35
2022/10/11 10:17:04;;;;;;;3.45;3.15;;;20.30;64.60;;;;;;5029676;28;20041;-36
2022/10/11 10:19:46;;;;;;;3.55;3.25;;;20.30;64.20;;;;;;5047094;28;20057;-39
2022/10/11 10:22:19;;;;;;;3.85;3.55;;;20.30;64.00;;;;;;5019618;28;20030;-38
2022/10/11 10:24:46;;;;;;;3.80;3.40;;;20.30;63.90;;;;;;5036579;28;20640;-40
2022/10/11 10:27:35;;;;;;;3.65;3.17;;;20.30;63.80;;;;;;5019158;28;20030;-40
2022/10/11 10:30:09;;;;;;;4.13;3.28;;;20.30;64.40;;;;;;5024060;28;20053;-40
2022/10/11 10:32:59;;;;;;;3.97;3.50;;;20.40;65.00;;;;;;5028580;28;20085;-38
2022/10/11 10:36:02;;;;;;;3.95;3.55;;;20.40;65.10;;;;;;5025686;28;20025;-42
2022/10/11 10:38:31;;;;;;;11.30;3.67;;;20.40;65.10;;;;;;5011589;28;20084;-40
2022/10/11 10:41:00;;;;;;;11.07;4.05;;;20.40;65.30;;;;;;5023264;28;20105;-44
2022/10/11 10:43:30;;;;;;;6.60;3.40;;;20.50;65.50;;;;;;5022975;28;20029;-41
2022/10/11 10:46:19;;;;;;;6.10;3.85;;;20.50;65.10;;;;;;5029252;28;20056;-40
2022/10/11 10:49:07;;;;;;;6.13;3.63;;;20.50;65.40;;;;;;5026061;28;20061;-36
2022/10/11 10:51:49;;;;;;;;;;;20.50;65.70;;;;;;5028196;28;20029;-34
2022/10/11 10:54:40;;;;;;;4.95;3.30;;;20.50;65.80;;;;;;5022837;28;19996;-35
2022/10/11 10:57:17;;;;;;;6.55;3.63;;;20.60;65.30;;;;;;5032183;28;20045;-35
2022/10/11 10:59:55;;;;;;;4.25;3.50;;;20.60;65.10;;;;;;5024648;28;20037;-35
2022/10/11 11:02:45;;;;;;;3.80;3.40;;;20.60;64.90;;;;;;5020450;28;20034;-35
2022/10/11 11:05:30;;;;;;;3.95;3.53;;;20.60;64.70;;;;;;5026057;28;20060;-35
2022/10/11 11:08:28;;;;;;;3.85;3.55;;;20.60;64.50;;;;;;5021497;28;20030;-35
2022/10/11 11:11:16;;;;;;;4.05;3.65;;;20.60;64.30;;;;;;5019932;28;20105;-41
2022/10/11 11:13:45;;;;;;;4.28;3.53;;;20.60;64.10;;;;;;5017387;28;20022;-37
2022/10/11 11:16:31;;;;;;;3.88;3.20;;;20.60;63.90;;;;;;5019972;28;20033;-35
2022/10/11 11:19:01;;;;;;;4.28;3.88;;;20.50;63.70;;;;;;5019258;28;20018;-35
2022/10/11 11:21:39;;;;;;;3.90;3.60;;;20.60;63.70;;;;;;5017271;28;20434;-35
2022/10/11 11:24:26;;;;;;;3.65;3.35;;;20.60;63.80;;;;;;5020622;28;20058;-35
2022/10/11 11:27:23;;;;;;;4.43;3.30;;;20.60;64.10;;;;;;5019199;28;20826;-35
2022/10/11 11:29:55;;;;;;;4.07;3.35;;;20.60;64.10;;;;;;5017214;28;20160;-35
2022/10/11 11:32:54;;;;;;;3.58;3.28;;;20.60;63.80;;;;;;5017275;28;20394;-35
2022/10/11 11:35:42;;;;;;;3.67;3.38;;;20.60;63.80;;;;;;5019383;28;20041;-35
2022/10/11 11:38:15;;;;;;;3.92;3.55;;;20.60;63.80;;;;;;5017531;28;20033;-35
2022/10/11 11:41:01;;;;;;;3.78;3.47;;;20.60;63.50;;;;;;5033653;28;20036;-35
2022/10/11 11:43:58;;;;;;;3.80;3.50;;;20.60;63.40;;;;;;5019595;28;20057;-35
2022/10/11 11:46:39;;;;;;;4.13;3.72;;;20.60;63.30;;;;;;5019330;28;20025;-35
2022/10/11 11:49:33;;;;;;;4.20;3.33;;;20.50;63.10;;;;;;5016975;28;20042;-35
2022/10/11 11:51:59;;;;;;;4.07;3.45;;;20.60;63.00;;;;;;5007659;28;20042;-35
2022/10/11 11:54:49;;;;;;;3.88;3.47;;;20.50;62.90;;;;;;5019230;28;20093;-35
2022/10/11 11:57:27;;;;;;;3.92;3.63;;;20.60;63.30;;;;;;5019915;28;20030;-35
2022/10/11 11:59:59;;;;;;;3.33;3.03;;;20.60;63.50;;;;;;5020293;28;20030;-35
2022/10/11 12:03:05;;;;;;;4.00;3.70;;;20.60;63.80;;;;;;5018845;28;20037;-35
2022/10/11 12:05:34;;;;;;;3.42;3.13;;;20.60;63.60;;;;;;5019552;28;20029;-35
2022/10/11 12:08:23;;;;;;;3.15;2.88;;;20.60;63.50;;;;;;5021407;28;20057;-35
2022/10/11 12:10:50;;;;;;;3.88;3.45;;;20.60;63.50;;;;;;5050981;28;20041;-35
2022/10/11 12:13:16;;;;;;;3.40;3.10;;;20.60;63.40;;;;;;5019129;28;20506;-35
2022/10/11 12:16:02;;;;;;;3.85;3.50;;;20.60;63.20;;;;;;5020593;28;20022;-35
2022/10/11 12:18:29;;;;;;;3.75;3.45;;;20.60;63.10;;;;;;5015971;28;20025;-35
2022/10/11 12:21:04;;;;;;;;;;;20.60;63.00;;;;;;5018783;28;20084;-35
2022/10/11 12:23:30;;;;;;;3.63;3.33;;;20.60;62.90;;;;;;5019108;28;19909;-35
2022/10/11 12:26:16;;;;;;;3.65;3.35;;;20.60;62.90;;;;;;5019741;28;20033;-35
2022/10/11 12:28:42;;;;;;;3.78;3.40;;;20.50;62.70;;;;;;5019296;28;20037;-35
2022/10/11 12:31:25;;;;;;;4.65;3.80;;;20.50;62.70;;;;;;5019358;28;20073;-35
2022/10/11 12:34:01;;;;;;;3.70;3.40;;;20.50;62.70;;;;;;5020485;28;20061;-35
2022/10/11 12:36:30;;;;;;;3.50;3.20;;;20.50;62.60;;;;;;5018062;28;20145;-35
2022/10/11 12:39:18;;;;;;;3.65;3.35;;;20.50;62.60;;;;;;5020029;28;20060;-35
2022/10/11 12:41:50;;;;;;;4.10;3.70;;;20.50;62.50;;;;;;5023668;28;20025;-35
2022/10/11 12:44:22;;;;;;;3.70;3.40;;;20.50;62.50;;;;;;5021915;28;20030;-35
2022/10/11 12:46:53;;;;;;;3.67;3.38;;;20.50;62.40;;;;;;5023194;28;20061;-35
2022/10/11 12:49:49;;;;;;;4.00;3.60;;;20.50;62.40;;;;;;5022294;28;20046;-35
2022/10/11 12:52:16;;;;;;;3.72;3.42;;;20.50;62.30;;;;;;5022842;28;20022;-35
2022/10/11 12:55:12;;;;;;;3.50;3.20;;;20.40;62.20;;;;;;5023582;28;20483;-35
2022/10/11 12:58:07;;;;;;;3.90;3.55;;;20.40;62.20;;;;;;5019075;28;20041;-35
2022/10/11 13:00:39;;;;;;;3.80;3.50;;;20.40;62.10;;;;;;5022673;28;20097;-35
2022/10/11 13:03:29;;;;;;;4.00;3.70;;;20.40;62.10;;;;;;5026043;28;20026;-35
2022/10/11 13:05:56;;;;;;;3.75;3.45;;;20.40;62.10;;;;;;5024248;28;20048;-35
2022/10/11 13:08:35;;;;;;;4.47;3.72;;;20.40;62.10;;;;;;5022810;28;20041;-35
2022/10/11 13:11:05;;;;;;;3.90;3.60;;;20.40;62.10;;;;;;5050903;28;20033;-35
2022/10/11 13:13:39;;;;;;;3.88;3.58;;;20.40;62.00;;;;;;5020212;28;20038;-35